ADDS METAR Data INFO
IDs: Format: Raw Decoded Include TAF

Data at: 0033 UTC 23 Oct 2017

KEET 222353Z AUTO 00000KT 10SM -RA BKN110 22/21 A3003 RMK AO2 SLP164 P0000 60001 T02220211 10256 20222 55009
KEET 222253Z AUTO VRB04KT 10SM -RA SCT055 SCT070 BKN110 23/21 A3003 RMK AO2 SLP164 P0001 T02280211
KEET 222153Z AUTO 11003KT 10SM -RA FEW070 BKN100 BKN120 24/21 A3004 RMK AO2 RAB37 SLP166 P0000 T02390206
KEET 222053Z AUTO 14005KT 10SM FEW030 BKN060 BKN080 24/20 A3006 RMK AO2 SLP173 T02440200 56016
KEET 221953Z AUTO 13007KT 090V160 10SM SCT055 25/19 A3007 RMK AO2 SLP175 T02500194
KEET 221853Z AUTO 14007KT 10SM BKN055 OVC070 25/19 A3009 RMK AO2 SLP183 T02500194
KEET 221753Z AUTO 14005KT 10SM SCT055 SCT070 25/20 A3011 RMK AO2 SLP189 T02500200 10250 20172 58021
KEET 221653Z AUTO 14008G16KT 10SM FEW021 SCT070 24/20 A3013 RMK AO2 SLP197 T02390200
KEET 221622Z AUTO 14011G18KT 10SM SCT019 24/20 A3014 RMK AO2 T02390200
KEET 221553Z AUTO 16010G16KT 10SM BKN016 23/20 A3015 RMK AO2 SLP205 T02330200
KEET 221543Z AUTO 14009G15KT 10SM BKN016 23/20 A3016 RMK AO2 T02330200
KEET 221453Z AUTO 14008G15KT 100V170 10SM OVC013 22/19 A3017 RMK AO2 SLP210 T02170194 55003
KEET 221404Z AUTO VRB05G15KT 10SM BKN013 BKN019 OVC060 21/18 A3017 RMK AO2 T02060183
KEET 221353Z AUTO 10007KT 10SM SCT012 BKN019 BKN055 20/18 A3017 RMK AO2 SLP211 T02000178
KEET 221338Z AUTO VRB03KT 10SM BKN018 19/17 A3017 RMK AO2 T01890172
KEET 221253Z AUTO 08004KT 10SM CLR 18/17 A3017 RMK AO2 SLP213 T01780172
KEET 221153Z AUTO 00000KT 10SM CLR 17/17 A3018 RMK AO2 SLP214 T01720167 10194 20167 53009
KEET 221053Z AUTO 11003KT 10SM CLR 17/16 A3016 RMK AO2 SLP208 T01720161
KEET 220953Z AUTO 12003KT 10SM CLR 17/16 A3016 RMK AO2 SLP207 T01670156
KEET 220853Z AUTO 12005KT 10SM CLR 18/16 A3015 RMK AO2 SLP204 T01780156 58014
KEET 220753Z AUTO 11004KT 10SM CLR 18/16 A3016 RMK AO2 SLP208 T01830156
KEET 220653Z AUTO 10003KT 10SM CLR 19/16 A3018 RMK AO2 SLP215 T01890156
KEET 220553Z AUTO VRB03KT 10SM CLR 19/16 A3019 RMK AO2 SLP218 T01890156 10217 20189 402670128 58005
KEET 220453Z AUTO 08004KT 10SM CLR 19/16 A3021 RMK AO2 SLP223 T01940161
KEET 220353Z AUTO VRB03KT 10SM CLR 19/17 A3021 RMK AO2 SLP225 T01940167
KEET 220253Z AUTO 00000KT 10SM CLR 20/17 A3021 RMK AO2 SLP225 T02000172 51008
KEET 220153Z AUTO VRB03KT 10SM CLR 21/17 A3020 RMK AO2 SLP222 T02110172
KEET 220053Z AUTO 11003KT 10SM CLR 21/18 A3020 RMK AO2 SLP222 T02110178
KEET 212353Z AUTO VRB03KT 10SM CLR 22/18 A3018 RMK AO2 SLP217 T02170178 10267 20217 53005
KEET 212253Z AUTO 13004KT 10SM CLR 23/18 A3017 RMK AO2 SLP213 T02330178
KEET 212153Z AUTO 11004KT 10SM CLR 24/18 A3017 RMK AO2 SLP212 T02440178
KEET 212053Z AUTO 13006KT 10SM CLR 26/17 A3017 RMK AO2 SLP211 T02560167 55011
KEET 211953Z AUTO 13007KT 10SM SCT045 26/17 A3017 RMK AO2 SLP210 T02560172
KEET 211853Z AUTO 15006KT 10SM SCT039 27/16 A3018 RMK AO2 SLP216 T02670161
KEET 211753Z AUTO 14012G18KT 10SM FEW036 26/17 A3020 RMK AO2 SLP223 T02560172 10261 20133 58014
KEET 211653Z AUTO 14008KT 10SM CLR 25/17 A3023 RMK AO2 SLP231 T02500172
KEET 211553Z AUTO 11006KT 10SM CLR 23/18 A3024 RMK AO2 SLP236 T02280178
KEET 211453Z AUTO 11005KT 10SM CLR 21/16 A3025 RMK AO2 SLP238 T02060161 50010
KEET 211353Z AUTO VRB04KT 10SM CLR 17/13 A3025 RMK AO2 SLP240 T01670133
KEET 211253Z AUTO VRB03KT 10SM CLR 14/12 A3024 RMK AO2 SLP236 T01440122